Tapirai, Brazil
Current Conditions -  °F | °C
As of 7:00 AM on Friday 28 Nov 2014 (Local Time) from SBAX Reporting Station
Drizzle Drizzle  
Wind Chill: 72°   Ceiling: 200
Heat Index: 72°   Visibility: 1.2mi
Dew Point: 70°   Wind: 0mph
Humidity: 94%   Direction: NA
Pressure: 30.06"   Gusts: NA
Location:  19.89°S, 46.02°W
Report Text: SBAX 280900Z 00000KT 2000 -DZ BR OVC002 22/21 Q1018
Loading
Personal Weather Stations






























Interactive Weather Map New forecast layout! Learn more

10-Day Weather Forecast

Advertisements
Track Severe Weather on mobile